Time;durP1;ratioP1;P1;durP2;ratioP2;P2;SDS_P1;SDS_P2;PMS_P1;PMS_P2;Temp;Humidity;BMP_temperature;BMP_pressure;BME280_temperature;BME280_humidity;BME280_pressure;Samples;Min_cycle;Max_cycle;Signal;HPM_P1;HPM_P2
2022/04/24 00:01:24;;;;;;;8.95;7.03;;;8.60;99.90;;;;;;4995040;28;20054;-82
2022/04/24 00:03:50;;;;;;;10.85;7.68;;;8.50;99.90;;;;;;5010504;28;20041;-82
2022/04/24 00:06:16;;;;;;;13.63;7.43;;;8.50;99.90;;;;;;5011209;28;20091;-81
2022/04/24 00:08:41;;;;;;;11.25;7.35;;;8.50;99.90;;;;;;4995018;28;20054;-82
2022/04/24 00:11:09;;;;;;;9.98;7.82;;;8.50;99.90;;;;;;4994417;28;20479;-82
2022/04/24 00:13:38;;;;;;;10.57;7.15;;;8.40;99.90;;;;;;4982437;28;20061;-81
2022/04/24 00:16:07;;;;;;;10.05;7.53;;;8.40;99.90;;;;;;4978430;28;20057;-81
2022/04/24 00:18:33;;;;;;;11.27;7.57;;;8.40;99.90;;;;;;4994647;28;20038;-82
2022/04/24 00:20:59;;;;;;;10.65;7.03;;;8.40;99.90;;;;;;4994283;28;20542;-82
2022/04/24 00:23:24;;;;;;;10.40;7.88;;;8.40;99.90;;;;;;4994583;28;20188;-81
2022/04/24 00:25:50;;;;;;;11.55;7.45;;;8.40;99.90;;;;;;4994273;28;20136;-82
2022/04/24 00:28:16;;;;;;;9.68;7.32;;;8.30;99.90;;;;;;4994861;28;20050;-82
2022/04/24 00:30:41;;;;;;;10.45;7.75;;;8.30;99.90;;;;;;4994052;28;20060;-82
2022/04/24 00:33:07;;;;;;;9.48;7.60;;;8.30;99.90;;;;;;5012718;28;20407;-82
2022/04/24 00:35:33;;;;;;;10.32;7.82;;;8.20;99.90;;;;;;5013974;28;20084;-82
2022/04/24 00:37:58;;;;;;;10.55;7.68;;;8.20;99.90;;;;;;5013253;28;20500;-82
2022/04/24 00:40:24;;;;;;;13.25;7.82;;;8.20;99.90;;;;;;5013934;28;20837;-82
2022/04/24 00:42:50;;;;;;;12.05;7.43;;;8.10;99.90;;;;;;5013548;28;20497;-82
2022/04/24 00:45:16;;;;;;;14.52;8.10;;;8.10;99.90;;;;;;5007214;28;20088;-81
2022/04/24 00:47:42;;;;;;;8.55;7.32;;;8.10;99.90;;;;;;5028054;28;20541;-81
2022/04/24 00:50:08;;;;;;;9.63;7.43;;;8.00;99.90;;;;;;4996807;28;20053;-81
2022/04/24 00:52:35;;;;;;;8.60;7.13;;;8.00;99.90;;;;;;4997424;28;20053;-82
2022/04/24 00:55:01;;;;;;;8.95;7.45;;;8.00;99.90;;;;;;4996648;28;20757;-82
2022/04/24 00:57:27;;;;;;;10.63;7.90;;;8.00;99.90;;;;;;5013495;28;20044;-81
2022/04/24 00:59:53;;;;;;;9.10;6.93;;;7.90;99.90;;;;;;5012980;28;20053;-82
2022/04/24 01:02:19;;;;;;;8.82;7.30;;;7.80;99.90;;;;;;4997311;28;20041;-81
2022/04/24 01:04:44;;;;;;;8.95;7.28;;;7.80;99.90;;;;;;4996743;28;20045;-82
2022/04/24 01:07:10;;;;;;;9.30;7.15;;;7.70;99.90;;;;;;5013180;28;20060;-82
2022/04/24 01:09:36;;;;;;;10.32;8.00;;;7.70;99.90;;;;;;4964957;28;20049;-81
2022/04/24 01:12:04;;;;;;;11.50;8.20;;;7.70;99.90;;;;;;4996580;28;20064;-82
2022/04/24 01:14:31;;;;;;;11.13;8.20;;;7.60;99.90;;;;;;5013051;28;20538;-81
2022/04/24 01:16:57;;;;;;;20.40;8.93;;;7.50;99.90;;;;;;5012821;28;20049;-82
2022/04/24 01:19:24;;;;;;;12.85;8.25;;;7.50;99.90;;;;;;5012637;28;20037;-82
2022/04/24 01:21:50;;;;;;;10.23;7.80;;;7.50;99.90;;;;;;4996620;28;20480;-82
2022/04/24 01:24:21;;;;;;;11.60;8.85;;;7.50;99.90;;;;;;4996388;28;20059;-82
2022/04/24 01:26:47;;;;;;;12.52;8.57;;;7.50;99.90;;;;;;4997292;28;20049;-82
2022/04/24 01:29:14;;;;;;;10.43;8.32;;;7.40;99.90;;;;;;4980301;28;20644;-82
2022/04/24 01:31:41;;;;;;;13.55;9.00;;;7.50;99.90;;;;;;4980719;28;20380;-82
2022/04/24 01:34:07;;;;;;;11.68;8.50;;;7.40;99.90;;;;;;4995959;28;20483;-82
2022/04/24 01:36:33;;;;;;;14.02;9.32;;;7.40;99.90;;;;;;4996454;28;20045;-82
2022/04/24 01:38:59;;;;;;;10.90;8.07;;;7.30;99.90;;;;;;4995739;28;20057;-82
2022/04/24 01:41:24;;;;;;;11.93;9.05;;;7.30;99.90;;;;;;4996462;28;20074;-82
2022/04/24 01:43:50;;;;;;;11.07;8.15;;;7.30;99.90;;;;;;4996452;28;20045;-82
2022/04/24 01:46:16;;;;;;;11.07;8.90;;;7.20;99.90;;;;;;4996089;28;20387;-82
2022/04/24 01:48:42;;;;;;;15.02;8.50;;;7.20;99.90;;;;;;4996506;28;20050;-82
2022/04/24 01:51:09;;;;;;;10.70;8.18;;;7.20;99.90;;;;;;4979724;28;20045;-83
2022/04/24 01:53:36;;;;;;;11.38;8.65;;;7.10;99.90;;;;;;4996277;28;20111;-82
2022/04/24 01:56:04;;;;;;;12.52;8.88;;;7.20;99.90;;;;;;4995605;28;20053;-82
2022/04/24 01:58:30;;;;;;;14.85;8.85;;;7.10;99.90;;;;;;4995812;28;20057;-82
2022/04/24 02:00:55;;;;;;;12.50;9.00;;;7.10;99.90;;;;;;4995928;28;20064;-82
2022/04/24 02:03:23;;;;;;;11.57;8.65;;;7.00;99.90;;;;;;4980138;28;20052;-82
2022/04/24 02:05:49;;;;;;;12.32;8.20;;;7.10;99.90;;;;;;4979969;28;20057;-82
2022/04/24 02:08:14;;;;;;;13.55;8.48;;;7.00;99.90;;;;;;5012052;28;20049;-82
2022/04/24 02:10:41;;;;;;;11.57;8.45;;;7.00;99.90;;;;;;4996048;28;20046;-82
2022/04/24 02:13:07;;;;;;;12.18;9.00;;;7.10;99.90;;;;;;5011491;28;20116;-82
2022/04/24 02:15:33;;;;;;;12.35;8.90;;;7.00;99.90;;;;;;5012283;28;20680;-83
2022/04/24 02:18:00;;;;;;;9.95;8.00;;;7.00;99.90;;;;;;4979414;28;20042;-82
2022/04/24 02:20:26;;;;;;;13.30;9.43;;;6.90;99.90;;;;;;4996121;28;20045;-82
2022/04/24 02:22:52;;;;;;;12.15;8.40;;;7.00;99.90;;;;;;4995746;28;20120;-82
2022/04/24 02:25:18;;;;;;;11.68;8.93;;;6.90;99.90;;;;;;5014482;28;20669;-82
2022/04/24 02:27:44;;;;;;;13.45;9.02;;;6.90;99.90;;;;;;5028592;28;20042;-82
2022/04/24 02:30:10;;;;;;;11.05;8.98;;;6.90;99.90;;;;;;5009973;28;20060;-82
2022/04/24 02:32:36;;;;;;;11.32;8.88;;;6.90;99.90;;;;;;5012147;28;20046;-82
2022/04/24 02:35:02;;;;;;;10.93;8.15;;;6.80;99.90;;;;;;5011271;28;20119;-82
2022/04/24 02:37:28;;;;;;;10.85;8.75;;;6.80;99.90;;;;;;5011839;28;20202;-82
2022/04/24 02:39:54;;;;;;;12.65;8.88;;;6.80;99.90;;;;;;5012032;28;20057;-82
2022/04/24 02:42:20;;;;;;;11.27;8.20;;;6.80;99.90;;;;;;4979024;28;20160;-81
2022/04/24 02:44:45;;;;;;;9.30;7.90;;;6.80;99.90;;;;;;5011719;28;20054;-82
2022/04/24 02:47:11;;;;;;;10.48;8.27;;;6.80;99.90;;;;;;5011339;28;20123;-83
2022/04/24 02:49:37;;;;;;;12.52;8.48;;;6.70;99.90;;;;;;4995734;28;20045;-81
2022/04/24 02:52:03;;;;;;;12.52;8.98;;;6.70;99.90;;;;;;4995093;28;20052;-82
2022/04/24 02:54:29;;;;;;;10.63;8.23;;;6.70;99.90;;;;;;5011738;28;20057;-82
2022/04/24 02:56:54;;;;;;;11.60;9.40;;;6.70;99.90;;;;;;4995434;28;20123;-81
2022/04/24 02:59:20;;;;;;;11.27;8.38;;;6.60;99.90;;;;;;4994844;28;20073;-82
2022/04/24 03:01:46;;;;;;;12.77;8.90;;;6.60;99.90;;;;;;4995622;28;20049;-82
2022/04/24 03:04:13;;;;;;;12.40;8.27;;;6.60;99.90;;;;;;5011054;28;20045;-82
2022/04/24 03:06:39;;;;;;;10.88;8.70;;;6.60;99.90;;;;;;4995644;28;20053;-82
2022/04/24 03:09:05;;;;;;;12.93;8.23;;;6.50;99.90;;;;;;5011212;28;20045;-82
2022/04/24 03:11:31;;;;;;;10.90;8.40;;;6.50;99.90;;;;;;5005105;28;20045;-82
2022/04/24 03:13:57;;;;;;;11.30;8.52;;;6.50;99.90;;;;;;5007437;28;20049;-82
2022/04/24 03:16:23;;;;;;;14.57;9.02;;;6.50;99.90;;;;;;5011491;28;20176;-82
2022/04/24 03:18:48;;;;;;;12.38;8.43;;;6.50;99.90;;;;;;5011328;28;20824;-82
2022/04/24 03:21:14;;;;;;;11.52;8.82;;;6.40;99.90;;;;;;4994581;28;20577;-83
2022/04/24 03:23:40;;;;;;;11.60;8.60;;;6.40;99.90;;;;;;4995423;28;20064;-82
2022/04/24 03:26:06;;;;;;;12.02;8.98;;;6.30;99.90;;;;;;5010986;28;20180;-82
2022/04/24 03:28:32;;;;;;;12.52;9.05;;;6.30;99.90;;;;;;4979055;28;20136;-82
2022/04/24 03:30:57;;;;;;;12.63;9.15;;;6.30;99.90;;;;;;5011678;28;20053;-82
2022/04/24 03:33:23;;;;;;;11.27;8.70;;;6.30;99.90;;;;;;4994541;28;20176;-81
2022/04/24 03:35:49;;;;;;;12.95;8.63;;;6.30;99.90;;;;;;4995225;28;20081;-82
2022/04/24 03:38:14;;;;;;;12.23;8.73;;;6.20;99.90;;;;;;4994209;28;20128;-81
2022/04/24 03:40:40;;;;;;;11.82;9.43;;;6.20;99.90;;;;;;5011959;28;20128;-82
2022/04/24 03:43:06;;;;;;;12.57;9.30;;;6.20;99.90;;;;;;4998191;28;20111;-82
2022/04/24 03:45:31;;;;;;;16.95;10.48;;;6.20;99.90;;;;;;5015200;28;20052;-81
2022/04/24 03:47:57;;;;;;;12.35;9.23;;;6.10;99.90;;;;;;4998733;28;20049;-83
2022/04/24 03:50:23;;;;;;;10.70;8.55;;;6.20;99.90;;;;;;4998166;28;20125;-83
2022/04/24 03:52:49;;;;;;;14.10;9.30;;;6.10;99.90;;;;;;5014889;28;20359;-82
2022/04/24 03:55:14;;;;;;;13.98;9.85;;;6.20;99.90;;;;;;4981542;28;20057;-82
2022/04/24 03:57:40;;;;;;;14.90;8.85;;;6.10;99.90;;;;;;5015028;28;20053;-82
2022/04/24 04:00:10;;;;;;;13.27;9.63;;;6.10;99.90;;;;;;5014616;28;20080;-82
2022/04/24 04:02:46;;;;;;;12.75;9.23;;;6.10;99.90;;;;;;4998096;28;20380;-82
2022/04/24 04:05:13;;;;;;;12.73;8.75;;;6.20;99.90;;;;;;4997669;28;20057;-82
2022/04/24 04:07:39;;;;;;;14.63;8.80;;;6.10;99.90;;;;;;5014616;28;20376;-82
2022/04/24 04:10:07;;;;;;;16.30;9.10;;;6.10;99.90;;;;;;4981914;28;20688;-82
2022/04/24 04:12:35;;;;;;;11.50;8.82;;;6.20;99.90;;;;;;5014483;28;20080;-82
2022/04/24 04:15:02;;;;;;;13.32;9.10;;;6.20;99.90;;;;;;5014529;28;20057;-82
2022/04/24 04:17:28;;;;;;;11.43;9.00;;;6.20;99.90;;;;;;5013933;28;20136;-82
2022/04/24 04:19:54;;;;;;;14.85;8.80;;;6.20;99.90;;;;;;4998110;28;20143;-82
2022/04/24 04:22:20;;;;;;;12.20;8.68;;;6.20;99.90;;;;;;5013544;28;20099;-82
2022/04/24 04:24:45;;;;;;;15.75;8.88;;;6.20;99.90;;;;;;4981974;28;20441;-82
2022/04/24 04:27:11;;;;;;;11.30;8.43;;;6.20;99.90;;;;;;4997579;28;20053;-82
2022/04/24 04:29:37;;;;;;;12.85;9.18;;;6.20;99.90;;;;;;5013878;28;20132;-82
2022/04/24 04:32:04;;;;;;;12.90;9.15;;;6.20;99.90;;;;;;4997877;28;20156;-82
2022/04/24 04:34:29;;;;;;;13.48;8.77;;;6.20;99.90;;;;;;4996651;28;20057;-83
2022/04/24 04:36:55;;;;;;;15.05;8.73;;;6.30;99.90;;;;;;5013927;28;20060;-82
2022/04/24 04:39:21;;;;;;;13.98;8.70;;;6.30;99.90;;;;;;4997444;28;20053;-82
2022/04/24 04:41:47;;;;;;;13.07;9.10;;;6.30;99.90;;;;;;5014107;28;20052;-82
2022/04/24 04:44:12;;;;;;;12.40;9.93;;;6.30;99.90;;;;;;4996822;28;20049;-81
2022/04/24 04:46:38;;;;;;;10.82;8.40;;;6.30;99.90;;;;;;4997504;28;20136;-82
2022/04/24 04:49:04;;;;;;;13.48;8.85;;;6.30;99.90;;;;;;4997704;28;20077;-82
2022/04/24 04:51:32;;;;;;;16.27;9.23;;;6.30;99.90;;;;;;5013103;28;20123;-82
2022/04/24 04:53:58;;;;;;;12.85;8.43;;;6.30;99.90;;;;;;4996495;28;20049;-82
2022/04/24 04:56:23;;;;;;;12.95;8.95;;;6.30;99.90;;;;;;4996728;28;20045;-82
2022/04/24 04:58:49;;;;;;;12.55;8.80;;;6.30;99.90;;;;;;5013344;28;20045;-82
2022/04/24 05:01:15;;;;;;;11.55;8.63;;;6.30;99.90;;;;;;4997099;28;20041;-82
2022/04/24 05:03:41;;;;;;;12.65;8.68;;;6.40;99.90;;;;;;5013133;28;20064;-83
2022/04/24 05:06:07;;;;;;;11.20;8.20;;;6.50;99.90;;;;;;5013354;28;20092;-82
2022/04/24 05:08:33;;;;;;;14.45;8.60;;;6.50;99.90;;;;;;5012840;28;20156;-82
2022/04/24 05:10:59;;;;;;;11.25;9.02;;;6.60;99.90;;;;;;4980953;28;20049;-82
2022/04/24 05:13:25;;;;;;;12.35;9.55;;;6.60;99.90;;;;;;5012538;28;20083;-82
2022/04/24 05:15:50;;;;;;;12.05;8.40;;;6.70;99.90;;;;;;4997001;28;20092;-82
2022/04/24 05:18:16;;;;;;;11.55;8.38;;;6.80;99.90;;;;;;5012434;28;20092;-82
2022/04/24 05:20:45;;;;;;;10.90;8.55;;;6.90;99.90;;;;;;4996851;28;20049;-82
2022/04/24 05:23:11;;;;;;;11.93;8.77;;;7.00;99.90;;;;;;4997258;28;20088;-82
2022/04/24 05:25:37;;;;;;;14.77;8.02;;;7.00;99.90;;;;;;4996771;28;20046;-82
2022/04/24 05:28:04;;;;;;;13.30;8.55;;;7.10;99.90;;;;;;5012887;28;20053;-82
2022/04/24 05:30:30;;;;;;;11.02;8.07;;;7.20;99.90;;;;;;5012675;28;20060;-82
2022/04/24 05:32:56;;;;;;;12.52;8.27;;;7.20;99.90;;;;;;5013116;28;20045;-82
2022/04/24 05:35:22;;;;;;;15.35;8.63;;;7.30;99.90;;;;;;4995944;28;20059;-83
2022/04/24 05:37:48;;;;;;;10.95;7.78;;;7.40;99.90;;;;;;5012335;28;20085;-82
2022/04/24 05:40:15;;;;;;;15.32;8.45;;;7.50;99.90;;;;;;5012233;28;20124;-82
2022/04/24 05:42:54;;;;;;;13.32;8.63;;;7.50;99.90;;;;;;4996540;28;20049;-82
2022/04/24 05:45:24;;;;;;;12.90;8.38;;;7.60;99.90;;;;;;4996184;28;20099;-82
2022/04/24 05:47:51;;;;;;;12.82;8.10;;;7.60;99.90;;;;;;5012904;28;20053;-82
2022/04/24 05:50:17;;;;;;;11.32;8.07;;;7.70;99.90;;;;;;5012314;28;20057;-82
2022/04/24 05:52:43;;;;;;;13.50;8.40;;;7.70;99.90;;;;;;5011860;28;20445;-82
2022/04/24 05:55:10;;;;;;;11.55;8.30;;;7.70;99.90;;;;;;5012186;28;20045;-83
2022/04/24 05:57:36;;;;;;;13.60;8.68;;;7.70;99.90;;;;;;4995666;28;20187;-82
2022/04/24 06:00:08;;;;;;;13.40;9.05;;;7.70;99.90;;;;;;4996351;28;20395;-82
2022/04/24 06:02:34;;;;;;;10.88;9.00;;;7.70;99.90;;;;;;5012128;28;20196;-83
2022/04/24 06:04:59;;;;;;;14.50;8.93;;;7.60;99.90;;;;;;5012483;28;20136;-83
2022/04/24 06:07:25;;;;;;;13.15;9.25;;;7.60;99.90;;;;;;5012005;28;20057;-83
2022/04/24 06:09:51;;;;;;;14.45;9.13;;;7.60;99.90;;;;;;4995345;28;20056;-82
2022/04/24 06:12:17;;;;;;;16.58;9.80;;;7.60;99.90;;;;;;4995602;28;20045;-82
2022/04/24 06:14:43;;;;;;;13.00;9.35;;;7.50;99.90;;;;;;5012396;28;20143;-82
2022/04/24 06:17:09;;;;;;;14.50;8.88;;;7.60;99.90;;;;;;5012157;28;20096;-83
2022/04/24 06:19:34;;;;;;;15.68;8.82;;;7.60;99.90;;;;;;4979311;28;20647;-82
2022/04/24 06:22:00;;;;;;;14.98;9.75;;;7.70;99.90;;;;;;4979839;28;20053;-82
2022/04/24 06:24:26;;;;;;;14.35;9.32;;;7.80;99.90;;;;;;4995757;28;20049;-82
2022/04/24 06:26:52;;;;;;;14.35;8.93;;;7.90;99.90;;;;;;4979699;28;20072;-82
2022/04/24 06:29:18;;;;;;;13.02;9.63;;;7.90;99.90;;;;;;5011336;28;20139;-83
2022/04/24 06:31:44;;;;;;;12.95;9.18;;;7.90;99.90;;;;;;4996316;28;20056;-82
2022/04/24 06:34:10;;;;;;;13.38;9.18;;;8.00;99.90;;;;;;4998866;28;20072;-81
2022/04/24 06:36:37;;;;;;;13.38;8.63;;;8.00;99.90;;;;;;4999115;28;20049;-82
2022/04/24 06:39:02;;;;;;;13.52;9.65;;;8.00;99.90;;;;;;5000370;28;20436;-82
2022/04/24 06:41:29;;;;;;;15.23;9.52;;;8.20;99.90;;;;;;4985165;28;20088;-82
2022/04/24 06:43:55;;;;;;;14.75;9.75;;;8.40;99.90;;;;;;5017186;28;20558;-82
2022/04/24 06:46:21;;;;;;;14.10;8.63;;;8.50;99.90;;;;;;5015789;28;20051;-83
2022/04/24 06:48:47;;;;;;;13.93;8.77;;;8.60;99.90;;;;;;5013379;28;20081;-82
2022/04/24 06:51:12;;;;;;;13.80;7.78;;;8.90;99.90;;;;;;4996555;28;20042;-82
2022/04/24 06:53:39;;;;;;;10.85;8.00;;;9.00;99.90;;;;;;5012190;28;20042;-82
2022/04/24 06:56:05;;;;;;;12.95;7.53;;;9.20;99.90;;;;;;5045650;28;20107;-83
2022/04/24 06:58:31;;;;;;;14.50;8.05;;;9.30;99.90;;;;;;4994998;28;20442;-83
2022/04/24 07:00:57;;;;;;;12.23;7.85;;;9.40;99.90;;;;;;5024058;28;20091;-84
2022/04/24 07:03:24;;;;;;;8.65;6.53;;;9.60;99.90;;;;;;4995100;28;20053;-83
2022/04/24 07:05:53;;;;;;;11.27;6.78;;;9.70;99.90;;;;;;5008406;28;20050;-84
2022/04/24 07:08:21;;;;;;;11.85;6.55;;;9.70;99.90;;;;;;4976108;28;20129;-84
2022/04/24 07:10:47;;;;;;;8.02;5.65;;;9.80;99.90;;;;;;4992575;28;20050;-83
2022/04/24 07:13:13;;;;;;;7.93;5.53;;;9.90;99.90;;;;;;4969070;28;20077;-83
2022/04/24 07:15:39;;;;;;;9.57;5.80;;;10.00;99.90;;;;;;4995848;28;20076;-83
2022/04/24 07:18:06;;;;;;;8.32;4.90;;;10.00;99.90;;;;;;4999367;28;20060;-84
2022/04/24 07:20:31;;;;;;;9.38;5.13;;;10.10;99.90;;;;;;5015265;28;20049;-84
2022/04/24 07:23:03;;;;;;;9.68;5.22;;;10.10;99.90;;;;;;5015838;28;20065;-84
2022/04/24 07:25:43;;;;;;;10.57;5.45;;;10.10;99.90;;;;;;4982394;28;20058;-85
2022/04/24 07:28:13;;;;;;;7.63;5.40;;;10.10;99.90;;;;;;5013719;28;20042;-84
2022/04/24 07:30:39;;;;;;;7.68;5.07;;;10.10;99.90;;;;;;4994376;28;20049;-84
2022/04/24 07:33:06;;;;;;;6.25;4.70;;;10.30;99.90;;;;;;4989505;28;20506;-84
2022/04/24 07:35:34;;;;;;;6.35;4.38;;;10.40;99.90;;;;;;5010187;28;20136;-83
2022/04/24 07:37:59;;;;;;;6.35;4.30;;;10.50;99.90;;;;;;5006045;28;20045;-84
2022/04/24 07:40:27;;;;;;;7.22;4.25;;;10.40;99.90;;;;;;5009863;28;20049;-85
2022/04/24 07:42:57;;;;;;;6.03;3.85;;;10.40;99.90;;;;;;5011723;28;20041;-84
2022/04/24 07:45:29;;;;;;;4.45;3.10;;;10.30;99.90;;;;;;4992388;28;20041;-85
2022/04/24 07:47:56;;;;;;;5.47;3.50;;;10.20;99.90;;;;;;4998420;28;20061;-84
2022/04/24 07:50:24;;;;;;;6.30;3.40;;;10.30;99.90;;;;;;5014603;28;20454;-84
2022/04/24 07:52:50;;;;;;;3.97;3.22;;;10.30;99.90;;;;;;5009960;28;20500;-83
2022/04/24 07:55:18;;;;;;;7.07;3.85;;;10.40;99.90;;;;;;4978093;28;20115;-84
2022/04/24 07:57:48;;;;;;;8.75;3.38;;;10.50;99.90;;;;;;5009199;28;20041;-84
2022/04/24 08:00:15;;;;;;;4.00;2.70;;;10.60;99.90;;;;;;4986350;28;20042;-85
2022/04/24 08:03:07;;;;;;;6.50;3.22;;;10.60;99.90;;;;;;4997571;28;20053;-84
2022/04/24 08:05:36;;;;;;;6.53;3.17;;;10.80;99.90;;;;;;4994153;28;20045;-84
2022/04/24 08:08:04;;;;;;;5.05;3.50;;;10.80;99.90;;;;;;4978842;28;20092;-85
2022/04/24 08:10:33;;;;;;;5.28;2.95;;;11.00;99.90;;;;;;5012035;28;20140;-85
2022/04/24 08:12:59;;;;;;;5.95;2.80;;;11.10;99.90;;;;;;5000867;28;20133;-84
2022/04/24 08:15:25;;;;;;;6.63;2.83;;;11.30;99.90;;;;;;5008338;28;20077;-84
2022/04/24 08:17:51;;;;;;;6.72;2.63;;;11.40;99.90;;;;;;4997669;28;20095;-84
2022/04/24 08:20:18;;;;;;;5.65;2.50;;;11.50;99.90;;;;;;5010134;28;20060;-84
2022/04/24 08:22:49;;;;;;;3.60;2.55;;;11.60;99.90;;;;;;4997272;28;20132;-86
2022/04/24 08:25:21;;;;;;;4.72;2.10;;;11.80;97.50;;;;;;5002745;28;20085;-85
2022/04/24 08:27:48;;;;;;;9.00;2.63;;;11.90;95.30;;;;;;5009692;28;20550;-84
2022/04/24 08:30:15;;;;;;;5.25;2.53;;;11.90;98.00;;;;;;5013826;28;20045;-84
2022/04/24 08:32:42;;;;;;;6.95;3.00;;;12.00;97.50;;;;;;5004756;28;20053;-84
2022/04/24 08:35:10;;;;;;;4.40;2.60;;;12.20;97.00;;;;;;4996783;28;20093;-84
2022/04/24 08:37:36;;;;;;;3.70;2.55;;;12.30;93.80;;;;;;4985747;28;20120;-82
2022/04/24 08:40:04;;;;;;;4.97;2.65;;;12.40;93.90;;;;;;4978708;28;20042;-82
2022/04/24 08:42:30;;;;;;;4.88;3.13;;;12.50;92.30;;;;;;4978981;28;20157;-84
2022/04/24 08:44:56;;;;;;;7.10;2.85;;;12.70;94.40;;;;;;5010436;28;20103;-83
2022/04/24 08:47:24;;;;;;;4.60;2.80;;;12.70;92.60;;;;;;4993236;28;20507;-83
2022/04/24 08:49:58;;;;;;;5.32;3.20;;;12.80;91.30;;;;;;5013110;28;20100;-84
2022/04/24 08:52:27;;;;;;;5.15;3.13;;;13.00;90.60;;;;;;4997443;28;20051;-83
2022/04/24 08:54:53;;;;;;;5.35;3.00;;;13.10;90.50;;;;;;5004229;28;20499;-83
2022/04/24 08:57:21;;;;;;;8.15;3.33;;;13.30;87.70;;;;;;4977966;28;20133;-83
2022/04/24 08:59:47;;;;;;;7.43;3.50;;;13.40;86.20;;;;;;4986552;28;20045;-83
2022/04/24 09:02:14;;;;;;;4.80;2.97;;;13.60;85.80;;;;;;4991463;28;20049;-82
2022/04/24 09:04:40;;;;;;;5.65;3.63;;;14.50;81.60;;;;;;4996262;28;20054;-82
2022/04/24 09:07:08;;;;;;;4.03;2.90;;;15.50;71.60;;;;;;5013325;28;20092;-81
2022/04/24 09:09:42;;;;;;;4.90;3.35;;;16.30;68.60;;;;;;4991704;28;20049;-81
2022/04/24 09:12:09;;;;;;;4.43;3.05;;;17.00;62.70;;;;;;5010663;28;20068;-82
2022/04/24 09:14:35;;;;;;;3.72;3.33;;;17.70;62.20;;;;;;4999682;28;20053;-82
2022/04/24 09:17:27;;;;;;;4.95;2.60;;;18.20;60.30;;;;;;4977394;28;20046;-82
2022/04/24 09:19:54;;;;;;;4.40;2.75;;;18.70;53.40;;;;;;4977045;28;20066;-82
2022/04/24 09:22:22;;;;;;;6.65;3.17;;;18.90;54.10;;;;;;4977156;28;20053;-82
2022/04/24 09:24:59;;;;;;;6.32;3.30;;;18.80;52.80;;;;;;4992941;28;20131;-83
2022/04/24 09:27:34;;;;;;;3.97;3.00;;;19.20;50.30;;;;;;4980638;28;20050;-82
2022/04/24 09:30:01;;;;;;;5.18;3.00;;;19.50;51.20;;;;;;4996550;28;20057;-83
2022/04/24 09:32:29;;;;;;;4.68;3.03;;;20.00;51.70;;;;;;5012646;28;20053;-81
2022/04/24 09:34:55;;;;;;;4.35;2.50;;;20.40;49.20;;;;;;4980002;28;20061;-82
2022/04/24 09:37:22;;;;;;;5.45;2.40;;;20.30;46.80;;;;;;5012360;28;20049;-82
2022/04/24 09:39:49;;;;;;;4.28;2.50;;;20.40;46.60;;;;;;5011867;28;20041;-82
2022/04/24 09:42:19;;;;;;;4.57;2.60;;;20.70;45.90;;;;;;5008221;28;20046;-85
2022/04/24 09:44:46;;;;;;;7.18;3.10;;;21.30;45.90;;;;;;4995944;28;20068;-84
2022/04/24 09:47:14;;;;;;;5.72;2.90;;;21.40;44.40;;;;;;4995843;28;20077;-83
2022/04/24 09:49:41;;;;;;;5.90;2.75;;;21.50;43.10;;;;;;5011921;28;20095;-84
2022/04/24 09:52:13;;;;;;;4.55;2.25;;;21.70;41.80;;;;;;5012706;28;20132;-83
2022/04/24 09:54:45;;;;;;;3.75;2.53;;;21.60;39.90;;;;;;5011905;28;20072;-83
2022/04/24 09:57:13;;;;;;;4.38;2.80;;;21.70;40.30;;;;;;4994034;28;20049;-83
2022/04/24 09:59:41;;;;;;;7.07;2.97;;;21.80;40.90;;;;;;5011949;28;20046;-83
2022/04/24 10:02:08;;;;;;;5.13;2.47;;;22.00;41.10;;;;;;4979923;28;20061;-83
2022/04/24 10:04:35;;;;;;;6.18;3.00;;;22.40;41.50;;;;;;4995602;28;20057;-83
2022/04/24 10:07:14;;;;;;;6.18;2.92;;;22.80;40.20;;;;;;5010769;28;20401;-83
2022/04/24 10:09:42;;;;;;;5.65;3.25;;;22.90;39.20;;;;;;4991919;28;20128;-83
2022/04/24 10:12:10;;;;;;;6.55;3.13;;;23.00;38.60;;;;;;4992478;28;20503;-83
2022/04/24 10:14:52;;;;;;;5.50;2.85;;;23.00;38.40;;;;;;4991899;28;20057;-83
2022/04/24 10:17:26;;;;;;;5.25;2.83;;;23.00;38.80;;;;;;4992097;28;20598;-84
2022/04/24 10:20:15;;;;;;;5.20;2.78;;;22.90;37.10;;;;;;4976027;28;20070;-83
2022/04/24 10:22:47;;;;;;;7.43;2.97;;;22.80;36.60;;;;;;4993641;28;20056;-83
2022/04/24 10:25:17;;;;;;;3.75;2.70;;;22.70;37.60;;;;;;4995764;28;20056;-83
2022/04/24 10:27:44;;;;;;;4.55;2.28;;;22.90;37.60;;;;;;4995632;28;20072;-83
2022/04/24 10:30:23;;;;;;;4.90;2.10;;;22.80;36.40;;;;;;5011908;28;20408;-83
2022/04/24 10:32:49;;;;;;;4.07;2.00;;;22.60;34.30;;;;;;4989348;28;20076;-82
2022/04/24 10:35:20;;;;;;;4.38;2.60;;;22.90;36.00;;;;;;4960296;28;20092;-82
2022/04/24 10:37:48;;;;;;;3.85;2.35;;;23.00;35.70;;;;;;4975684;28;20077;-82
2022/04/24 10:40:20;;;;;;;5.35;2.60;;;23.40;36.60;;;;;;4975768;28;20057;-83
2022/04/24 10:42:46;;;;;;;16.90;3.95;;;23.70;34.40;;;;;;4991958;28;20407;-83
2022/04/24 10:45:14;;;;;;;5.47;2.67;;;23.30;33.90;;;;;;4979695;28;20194;-82
2022/04/24 10:47:49;;;;;;;5.03;2.63;;;22.60;35.20;;;;;;4991725;28;20786;-83
2022/04/24 10:50:19;;;;;;;6.07;2.60;;;22.30;35.50;;;;;;4992190;28;20057;-82
2022/04/24 10:52:48;;;;;;;3.92;2.53;;;21.90;36.70;;;;;;4979524;28;20515;-82
2022/04/24 10:55:16;;;;;;;5.28;2.53;;;21.40;37.50;;;;;;4984863;28;20057;-81
2022/04/24 10:57:44;;;;;;;4.75;2.53;;;21.00;38.40;;;;;;4995570;28;20042;-83
2022/04/24 11:00:19;;;;;;;3.78;2.20;;;21.10;39.60;;;;;;4980021;28;20065;-82
2022/04/24 11:02:47;;;;;;;3.33;2.50;;;20.50;40.80;;;;;;4995665;28;20049;-82
2022/04/24 11:05:24;;;;;;;4.15;2.53;;;21.10;40.40;;;;;;5002038;28;20514;-82
2022/04/24 11:08:03;;;;;;;4.55;2.60;;;21.60;38.90;;;;;;5003050;28;20049;-82
2022/04/24 11:10:30;;;;;;;3.50;2.30;;;22.00;37.00;;;;;;5004576;28;20124;-82
2022/04/24 11:12:56;;;;;;;3.88;2.13;;;22.10;36.70;;;;;;5017985;28;20132;-82
2022/04/24 11:15:22;;;;;;;3.35;2.33;;;21.50;36.50;;;;;;4997317;28;20124;-82
2022/04/24 11:17:48;;;;;;;3.78;2.33;;;20.60;38.80;;;;;;4998419;28;20050;-82
2022/04/24 11:20:17;;;;;;;4.15;2.30;;;21.00;39.10;;;;;;4998678;28;20060;-82
2022/04/24 11:22:53;;;;;;;4.72;2.50;;;21.00;38.70;;;;;;4998479;28;20049;-82
2022/04/24 11:25:22;;;;;;;4.65;2.00;;;21.00;36.80;;;;;;4998718;28;20450;-83
2022/04/24 11:27:56;;;;;;;3.90;2.17;;;20.40;38.70;;;;;;4980614;28;20508;-82
2022/04/24 11:30:33;;;;;;;4.80;2.45;;;21.00;38.80;;;;;;4991000;28;20448;-82
2022/04/24 11:33:05;;;;;;;4.07;1.83;;;21.50;39.00;;;;;;5011407;28;20054;-83
2022/04/24 11:35:33;;;;;;;4.50;1.92;;;21.90;36.30;;;;;;4962641;28;20061;-82
2022/04/24 11:37:59;;;;;;;2.15;1.80;;;21.60;37.60;;;;;;4994676;28;20053;-82
2022/04/24 11:40:25;;;;;;;3.28;1.70;;;21.50;36.60;;;;;;4995709;28;20053;-82
2022/04/24 11:42:51;;;;;;;6.15;2.17;;;20.80;35.60;;;;;;4997969;28;20411;-82
2022/04/24 11:50:53;;;;;;;2.88;1.85;;;21.70;36.90;;;;;;4998836;28;20148;-82
2022/04/24 11:53:22;;;;;;;5.07;1.85;;;21.10;35.50;;;;;;4993733;28;20124;-82
2022/04/24 11:56:04;;;;;;;2.33;1.65;;;20.80;36.60;;;;;;4978422;28;20054;-82
2022/04/24 11:58:40;;;;;;;2.47;2.00;;;21.30;36.20;;;;;;4978664;28;20046;-82
2022/04/24 12:01:13;;;;;;;2.85;1.88;;;20.50;36.60;;;;;;4980019;28;20061;-82
2022/04/24 12:03:45;;;;;;;3.65;2.10;;;20.50;38.40;;;;;;4979777;28;20116;-83
2022/04/24 12:06:11;;;;;;;3.25;2.38;;;21.30;38.20;;;;;;4978681;28;20046;-83
2022/04/24 12:08:44;;;;;;;4.53;2.40;;;21.70;36.60;;;;;;4995364;28;20107;-82
2022/04/24 12:11:23;;;;;;;4.18;2.15;;;20.60;37.00;;;;;;4998458;28;20083;-82
2022/04/24 12:13:58;;;;;;;7.70;2.53;;;20.80;38.50;;;;;;4985101;28;20049;-83
2022/04/24 12:16:23;;;;;;;2.63;2.30;;;22.30;38.40;;;;;;4998268;28;20151;-82
2022/04/24 12:18:58;;;;;;;2.88;2.03;;;23.20;35.90;;;;;;4995823;28;20567;-83
2022/04/24 12:21:25;;;;;;;4.40;2.63;;;23.90;33.10;;;;;;4996703;28;20046;-83
2022/04/24 12:23:51;;;;;;;3.25;2.38;;;24.00;32.50;;;;;;4995637;28;20132;-82
2022/04/24 12:26:17;;;;;;;3.90;2.22;;;23.40;33.10;;;;;;4979112;28;20128;-83
2022/04/24 12:28:43;;;;;;;4.65;2.60;;;23.90;33.50;;;;;;4994363;28;20053;-82
2022/04/24 12:31:26;;;;;;;4.43;1.98;;;23.90;33.10;;;;;;4994802;28;20503;-83
2022/04/24 12:33:57;;;;;;;2.97;2.20;;;24.30;31.20;;;;;;5001609;28;20053;-82
2022/04/24 12:36:23;;;;;;;3.03;2.28;;;23.90;31.80;;;;;;4995095;28;20089;-82
2022/04/24 12:38:55;;;;;;;23.20;3.03;;;23.60;33.20;;;;;;5019022;28;20096;-83
2022/04/24 12:41:26;;;;;;;4.15;2.30;;;24.10;31.40;;;;;;4991308;28;20046;-82
2022/04/24 12:43:53;;;;;;;5.45;2.10;;;24.00;32.60;;;;;;4990743;28;20369;-82
2022/04/24 12:46:19;;;;;;;6.85;2.95;;;24.70;32.60;;;;;;4991320;28;20377;-82
2022/04/24 12:48:49;;;;;;;4.13;3.00;;;25.30;31.30;;;;;;4960431;28;20132;-82
2022/04/24 12:51:15;;;;;;;3.63;3.00;;;24.40;30.50;;;;;;4994862;28;20057;-82
2022/04/24 12:53:41;;;;;;;12.77;3.15;;;22.70;32.70;;;;;;5010378;28;20107;-83
2022/04/24 12:56:07;;;;;;;3.58;2.58;;;21.90;34.80;;;;;;4994010;28;20100;-82